createdAt,value
2018-06-12T00:00:26.546Z,11.37
2018-06-12T00:02:55.117Z,11.43
2018-06-12T00:05:26.577Z,10.60
2018-06-12T00:07:54.931Z,11.07
2018-06-12T00:10:25.175Z,9.57
2018-06-12T00:12:53.639Z,9.83
2018-06-12T00:15:23.669Z,9.53
2018-06-12T00:17:51.675Z,9.53
2018-06-12T00:20:19.800Z,10.23
2018-06-12T00:22:49.301Z,10.77
2018-06-12T00:25:17.402Z,9.80
2018-06-12T00:27:46.083Z,10.27
2018-06-12T00:30:14.347Z,10.50
2018-06-12T00:32:42.632Z,10.50
2018-06-12T00:35:13.057Z,10.13
2018-06-12T00:37:41.810Z,8.97
2018-06-12T00:40:09.883Z,9.57
2018-06-12T00:42:38.102Z,9.00
2018-06-12T00:45:09.345Z,9.73
2018-06-12T00:47:37.794Z,9.47
2018-06-12T00:50:06.954Z,10.50
2018-06-12T00:52:35.203Z,10.43
2018-06-12T00:55:04.291Z,10.13
2018-06-12T00:57:33.075Z,11.33
2018-06-12T01:00:01.138Z,11.30
2018-06-12T01:02:29.799Z,11.77
2018-06-12T01:04:57.907Z,11.80
2018-06-12T01:07:25.921Z,12.47
2018-06-12T01:09:54.757Z,11.70
2018-06-12T01:12:23.007Z,11.33
2018-06-12T01:14:51.277Z,12.00
2018-06-12T01:17:20.052Z,12.67
2018-06-12T01:19:48.264Z,11.20
2018-06-12T01:22:16.891Z,12.10
2018-06-12T01:24:45.505Z,12.27
2018-06-12T01:27:13.678Z,12.43
2018-06-12T01:29:42.697Z,11.00
2018-06-12T01:32:11.905Z,11.83
2018-06-12T01:34:41.614Z,11.20
2018-06-12T01:37:09.629Z,12.37
2018-06-12T01:39:38.285Z,11.37
2018-06-12T01:42:06.390Z,11.30
2018-06-12T01:44:35.266Z,10.87
2018-06-12T01:47:05.281Z,10.33
2018-06-12T01:49:34.522Z,10.10
2018-06-12T01:52:03.093Z,11.03
2018-06-12T01:54:31.373Z,9.97
2018-06-12T01:56:59.558Z,10.73
2018-06-12T01:59:28.039Z,11.47
2018-06-12T02:01:56.178Z,10.53
2018-06-12T02:04:24.818Z,10.37
2018-06-12T02:06:53.075Z,10.40
2018-06-12T02:09:21.958Z,10.73
2018-06-12T02:11:50.092Z,10.23
2018-06-12T02:14:19.073Z,11.10
2018-06-12T02:16:47.445Z,10.43
2018-06-12T02:19:19.820Z,9.93
2018-06-12T02:21:49.521Z,9.30
2018-06-12T02:24:17.939Z,10.03
2018-06-12T02:26:46.134Z,9.93
2018-06-12T02:29:14.511Z,9.30
2018-06-12T02:31:42.613Z,9.30
2018-06-12T02:34:10.744Z,9.73
2018-06-12T02:36:39.227Z,9.00
2018-06-12T02:39:08.060Z,9.70
2018-06-12T02:41:36.484Z,9.23
2018-06-12T02:44:04.694Z,9.87
2018-06-12T02:46:33.647Z,10.10
2018-06-12T02:49:03.010Z,10.33
2018-06-12T02:51:31.222Z,9.47
2018-06-12T02:54:00.471Z,9.83
2018-06-12T02:56:28.706Z,9.70
2018-06-12T02:58:57.140Z,9.40
2018-06-12T03:01:26.693Z,8.17
2018-06-12T03:03:54.925Z,8.47
2018-06-12T03:06:23.215Z,8.10
2018-06-12T03:08:51.731Z,8.00
2018-06-12T03:11:20.063Z,8.23
2018-06-12T03:13:49.385Z,7.73
2018-06-12T03:16:17.535Z,8.60
2018-06-12T03:18:45.753Z,8.07
2018-06-12T03:21:14.060Z,7.67
2018-06-12T03:23:42.805Z,7.67
2018-06-12T03:26:12.920Z,7.87
2018-06-12T03:28:41.800Z,7.70
2018-06-12T03:31:10.011Z,8.10
2018-06-12T03:33:38.471Z,7.97
2018-06-12T03:36:07.327Z,7.30
2018-06-12T03:38:35.612Z,7.67
2018-06-12T03:41:03.810Z,8.23
2018-06-12T03:43:33.092Z,7.73
2018-06-12T03:46:01.217Z,7.60
2018-06-12T03:48:30.176Z,7.70
2018-06-12T03:50:59.881Z,7.53
2018-06-12T03:53:29.176Z,7.83
2018-06-12T03:55:57.696Z,7.00
2018-06-12T03:58:26.077Z,6.93
2018-06-12T04:00:55.129Z,6.97
2018-06-12T04:03:23.222Z,7.20
2018-06-12T04:05:52.471Z,7.53
2018-06-12T04:08:20.763Z,7.50
2018-06-12T04:10:49.034Z,7.40
2018-06-12T04:13:18.103Z,7.47
2018-06-12T04:15:46.387Z,7.53
2018-06-12T04:18:14.619Z,7.80
2018-06-12T04:20:43.367Z,7.77
2018-06-12T04:23:12.293Z,7.53
2018-06-12T04:25:40.392Z,7.33
2018-06-12T04:28:08.181Z,7.30
2018-06-12T04:30:36.584Z,7.00
2018-06-12T04:33:05.055Z,6.47
2018-06-12T04:35:33.851Z,7.40
2018-06-12T04:38:02.929Z,7.47
2018-06-12T04:40:31.042Z,7.07
2018-06-12T04:42:59.690Z,6.57
2018-06-12T04:45:28.412Z,6.93
2018-06-12T04:47:57.670Z,7.33
2018-06-12T04:50:26.654Z,6.83
2018-06-12T04:52:56.606Z,6.50
2018-06-12T04:55:25.590Z,7.43
2018-06-12T04:57:53.790Z,6.97
2018-06-12T05:00:22.808Z,7.80
2018-06-12T05:02:51.171Z,7.00
2018-06-12T05:05:20.247Z,6.40
2018-06-12T05:07:49.789Z,7.33
2018-06-12T05:10:17.679Z,7.30
2018-06-12T05:12:45.939Z,7.57
2018-06-12T05:15:15.309Z,7.10
2018-06-12T05:17:43.405Z,7.23
2018-06-12T05:20:11.657Z,6.63
2018-06-12T05:22:41.554Z,6.47
2018-06-12T05:25:10.783Z,7.17
2018-06-12T05:27:38.837Z,7.23
2018-06-12T05:30:07.916Z,7.40
2018-06-12T05:32:35.999Z,7.10
2018-06-12T05:35:05.019Z,7.80
2018-06-12T05:37:33.753Z,7.23
2018-06-12T05:40:01.906Z,7.03
2018-06-12T05:42:30.455Z,7.07
2018-06-12T05:44:58.653Z,6.73
2018-06-12T05:47:28.808Z,7.27
2018-06-12T05:49:59.219Z,7.20
2018-06-12T05:52:27.573Z,7.20
2018-06-12T05:54:58.696Z,7.23
2018-06-12T05:57:27.942Z,6.83
2018-06-12T05:59:56.450Z,6.87
2018-06-12T06:02:25.340Z,7.07
2018-06-12T06:04:53.584Z,6.63
2018-06-12T06:07:22.779Z,7.27
2018-06-12T06:09:51.838Z,6.67
2018-06-12T06:12:21.136Z,6.50
2018-06-12T06:14:49.333Z,6.60
2018-06-12T06:17:19.305Z,6.63
2018-06-12T06:19:47.583Z,6.87
2018-06-12T06:22:16.535Z,6.70
2018-06-12T06:24:45.466Z,6.57
2018-06-12T06:27:16.710Z,6.63
2018-06-12T06:29:44.909Z,6.77
2018-06-12T06:32:13.156Z,7.23
2018-06-12T06:34:41.630Z,6.50
2018-06-12T06:37:09.987Z,6.67
2018-06-12T06:39:40.064Z,7.10
2018-06-12T06:42:08.989Z,7.23
2018-06-12T06:44:37.099Z,7.43
2018-06-12T06:47:07.454Z,7.57
2018-06-12T06:49:35.818Z,7.97
2018-06-12T06:52:34.822Z,7.23
2018-06-12T06:55:04.087Z,7.70
2018-06-12T06:57:32.194Z,7.73
2018-06-12T07:00:00.703Z,7.37
2018-06-12T07:02:33.277Z,8.07
2018-06-12T07:05:01.830Z,7.77
2018-06-12T07:07:30.408Z,7.40
2018-06-12T07:09:58.545Z,7.47
2018-06-12T07:12:26.646Z,7.67
2018-06-12T07:14:54.710Z,7.97
2018-06-12T07:17:22.855Z,8.03
2018-06-12T07:19:52.235Z,7.33
2018-06-12T07:22:20.794Z,8.03
2018-06-12T07:24:49.110Z,7.77
2018-06-12T07:27:18.375Z,10.23
2018-06-12T07:29:46.615Z,8.90
2018-06-12T07:32:16.255Z,7.83
2018-06-12T07:34:44.689Z,7.90
2018-06-12T07:37:12.754Z,8.30
2018-06-12T07:39:41.346Z,9.40
2018-06-12T07:42:09.305Z,8.70
2018-06-12T07:44:37.464Z,9.23
2018-06-12T07:47:07.227Z,8.60
2018-06-12T07:49:35.211Z,8.27
2018-06-12T07:52:04.592Z,8.50
2018-06-12T07:54:34.021Z,8.53
2018-06-12T07:57:03.271Z,10.57
2018-06-12T07:59:31.309Z,9.97
2018-06-12T08:01:59.440Z,8.50
2018-06-12T08:04:28.072Z,9.80
2018-06-12T08:06:56.243Z,9.33
2018-06-12T08:09:24.342Z,10.80
2018-06-12T08:11:54.418Z,9.77
2018-06-12T08:14:23.379Z,9.83
2018-06-12T08:16:53.817Z,9.87
2018-06-12T08:19:21.848Z,10.03
2018-06-12T08:21:49.959Z,9.73
2018-06-12T08:24:19.479Z,9.47
2018-06-12T08:26:47.913Z,10.07
2018-06-12T08:29:16.350Z,10.37
2018-06-12T08:31:44.676Z,10.67
2018-06-12T08:34:13.204Z,10.30
2018-06-12T08:36:41.893Z,9.13
2018-06-12T08:39:10.115Z,9.97
2018-06-12T08:41:41.494Z,10.23
2018-06-12T08:44:09.895Z,10.13
2018-06-12T08:46:39.409Z,10.60
2018-06-12T08:49:08.214Z,9.60
2018-06-12T08:51:37.634Z,10.30
2018-06-12T08:54:06.604Z,10.87
2018-06-12T08:56:34.795Z,10.60
2018-06-12T08:59:05.707Z,10.23
2018-06-12T09:01:35.291Z,10.40
2018-06-12T09:04:03.431Z,10.27
2018-06-12T09:06:33.079Z,35.57
2018-06-12T09:09:01.251Z,11.03
2018-06-12T09:11:29.281Z,10.23
2018-06-12T09:13:58.375Z,11.43
2018-06-12T09:16:26.915Z,10.80
2018-06-12T09:18:54.943Z,11.23
2018-06-12T09:21:23.047Z,11.60
2018-06-12T09:23:51.221Z,11.80
2018-06-12T09:26:20.310Z,11.40
2018-06-12T09:28:48.734Z,11.50
2018-06-12T09:31:18.497Z,11.53
2018-06-12T09:33:46.672Z,11.23
2018-06-12T09:36:20.585Z,11.50
2018-06-12T09:38:49.931Z,12.03
2018-06-12T09:41:20.817Z,12.23
2018-06-12T09:43:49.874Z,12.37
2018-06-12T09:46:18.163Z,11.77
2018-06-12T09:48:48.917Z,12.53
2018-06-12T09:51:20.352Z,12.23
2018-06-12T09:53:49.485Z,11.93
2018-06-12T09:56:18.730Z,13.17
2018-06-12T09:58:46.637Z,11.53
2018-06-12T10:01:21.172Z,11.20
2018-06-12T10:07:14.103Z,11.00
2018-06-12T10:09:45.901Z,10.87
2018-06-12T10:12:14.342Z,10.50
2018-06-12T10:14:43.747Z,12.17
2018-06-12T10:20:35.075Z,10.43
2018-06-12T10:23:05.062Z,11.53
2018-06-12T10:25:38.528Z,10.73
2018-06-12T10:28:06.931Z,10.63
2018-06-12T10:30:35.111Z,11.30
2018-06-12T10:33:04.036Z,11.77
2018-06-12T10:35:33.093Z,11.03
2018-06-12T10:38:04.424Z,11.70
2018-06-12T10:40:34.028Z,11.33
2018-06-12T10:43:02.763Z,10.37
2018-06-12T10:45:31.861Z,10.77
2018-06-12T10:48:01.261Z,10.13
2018-06-12T10:50:29.493Z,10.67
2018-06-12T10:52:58.477Z,9.90
2018-06-12T10:55:26.474Z,9.33
2018-06-12T10:57:54.836Z,9.80
2018-06-12T11:00:25.174Z,11.97
2018-06-12T11:02:53.660Z,10.07
2018-06-12T11:05:22.677Z,9.23
2018-06-12T11:07:51.023Z,8.40
2018-06-12T11:10:19.377Z,7.73
2018-06-12T11:12:47.616Z,7.37
2018-06-12T11:15:16.389Z,7.60
2018-06-12T11:17:45.083Z,7.60
2018-06-12T11:20:13.511Z,7.90
2018-06-12T11:22:44.096Z,7.57
2018-06-12T11:25:13.655Z,7.40
2018-06-12T11:27:43.252Z,7.40
2018-06-12T11:30:12.885Z,7.60
2018-06-12T11:32:41.560Z,8.07
2018-06-12T11:35:09.725Z,7.47
2018-06-12T11:37:40.634Z,7.47
2018-06-12T11:40:09.355Z,7.90
2018-06-12T11:42:37.743Z,7.87
2018-06-12T11:45:07.747Z,8.00
2018-06-12T11:47:36.939Z,7.37
2018-06-12T11:50:09.086Z,7.73
2018-06-12T11:52:44.165Z,7.43
2018-06-12T11:55:15.198Z,8.13
2018-06-12T11:57:43.499Z,7.60
2018-06-12T12:00:13.358Z,7.30
2018-06-12T12:02:42.896Z,7.37
2018-06-12T12:05:12.190Z,6.60
2018-06-12T12:07:41.206Z,6.50
2018-06-12T12:10:09.517Z,5.60
2018-06-12T12:12:38.310Z,6.17
2018-06-12T12:15:07.490Z,5.83
2018-06-12T12:17:36.090Z,5.87
2018-06-12T12:20:04.314Z,5.43
2018-06-12T12:22:33.001Z,5.50
2018-06-12T12:25:01.367Z,5.10
2018-06-12T12:27:31.356Z,5.43
2018-06-12T12:30:00.447Z,4.80
2018-06-12T12:32:28.758Z,4.90
2018-06-12T12:34:58.590Z,4.47
2018-06-12T12:37:27.727Z,4.67
2018-06-12T12:39:57.255Z,4.53
2018-06-12T12:42:25.845Z,4.50
2018-06-12T12:44:54.445Z,4.47
2018-06-12T12:47:23.432Z,4.20
2018-06-12T12:49:53.927Z,4.57
2018-06-12T12:52:22.277Z,4.87
2018-06-12T12:54:52.130Z,4.73
2018-06-12T12:57:20.286Z,4.67
2018-06-12T12:59:48.929Z,3.93
2018-06-12T13:02:18.286Z,4.10
2018-06-12T13:04:47.851Z,4.57
2018-06-12T13:07:17.911Z,3.70
2018-06-12T13:09:46.337Z,3.80
2018-06-12T13:12:14.575Z,4.23
2018-06-12T13:14:48.831Z,3.90
2018-06-12T13:17:19.990Z,3.83
2018-06-12T13:19:52.216Z,4.30
2018-06-12T13:22:23.691Z,3.80
2018-06-12T13:24:52.793Z,4.20
2018-06-12T13:27:25.213Z,4.37
2018-06-12T13:29:56.398Z,4.37
2018-06-12T13:32:27.365Z,4.33
2018-06-12T13:34:56.060Z,4.47
2018-06-12T13:37:25.921Z,4.27
2018-06-12T13:39:57.255Z,4.77
2018-06-12T13:42:27.541Z,4.80
2018-06-12T13:44:56.999Z,4.60
2018-06-12T13:47:26.471Z,4.43
2018-06-12T13:49:57.860Z,4.80
2018-06-12T13:52:26.683Z,4.30
2018-06-12T13:54:55.775Z,4.13
2018-06-12T13:57:24.666Z,5.50
2018-06-12T13:59:53.035Z,5.17
2018-06-12T14:02:21.146Z,4.60
2018-06-12T14:04:50.411Z,4.30
2018-06-12T14:07:19.306Z,4.67
2018-06-12T14:09:47.378Z,4.53
2018-06-12T14:12:16.624Z,7.77
2018-06-12T14:14:48.635Z,4.30
2018-06-12T14:17:16.880Z,3.83
2018-06-12T14:19:47.811Z,4.13
2018-06-12T14:22:16.365Z,4.07
2018-06-12T14:24:46.247Z,3.37
2018-06-12T14:27:15.483Z,2.97
2018-06-12T14:29:44.209Z,3.17
2018-06-12T14:32:12.356Z,3.40
2018-06-12T14:34:47.539Z,3.27
2018-06-12T14:37:17.488Z,3.73
2018-06-12T14:39:46.022Z,3.67
2018-06-12T14:42:16.284Z,4.00
2018-06-12T14:44:45.445Z,3.80
2018-06-12T14:47:16.036Z,3.97
2018-06-12T14:49:45.750Z,4.23
2018-06-12T14:52:16.040Z,3.70
2018-06-12T14:54:44.334Z,3.87
2018-06-12T14:57:12.434Z,4.07
2018-06-12T14:59:40.694Z,4.00
2018-06-12T15:02:13.342Z,3.90
2018-06-12T15:04:42.593Z,3.87
2018-06-12T15:07:16.858Z,3.73
2018-06-12T15:09:49.681Z,4.00
2018-06-12T15:12:18.115Z,4.30
2018-06-12T15:14:48.090Z,4.13
2018-06-12T15:17:17.346Z,4.10
2018-06-12T15:19:46.262Z,3.90
2018-06-12T15:22:14.748Z,4.13
2018-06-12T15:24:44.351Z,4.10
2018-06-12T15:27:15.662Z,4.60
2018-06-12T15:29:50.658Z,3.80
2018-06-12T15:32:22.032Z,4.50
2018-06-12T15:34:51.179Z,3.90
2018-06-12T15:37:21.465Z,3.80
2018-06-12T15:39:52.180Z,3.97
2018-06-12T15:42:21.283Z,3.97
2018-06-12T15:44:50.616Z,3.93
2018-06-12T15:47:19.174Z,4.27
2018-06-12T15:49:47.817Z,4.10
2018-06-12T15:52:19.103Z,4.13
2018-06-12T15:54:48.310Z,3.90
2018-06-12T15:57:16.574Z,4.37
2018-06-12T15:59:45.577Z,3.83
2018-06-12T16:02:15.729Z,3.70
2018-06-12T16:04:45.466Z,3.63
2018-06-12T16:07:15.387Z,3.70
2018-06-12T16:09:47.795Z,3.60
2018-06-12T16:12:16.343Z,3.30
2018-06-12T16:14:44.567Z,3.43
2018-06-12T16:17:15.484Z,3.17
2018-06-12T16:19:44.915Z,3.30
2018-06-12T16:22:17.225Z,3.33
2018-06-12T16:24:45.377Z,3.87
2018-06-12T16:27:13.558Z,3.43
2018-06-12T16:29:42.218Z,3.50
2018-06-12T16:32:12.321Z,3.13
2018-06-12T16:34:42.580Z,3.40
2018-06-12T16:37:15.102Z,3.33
2018-06-12T16:39:44.581Z,3.53
2018-06-12T16:42:13.870Z,3.30
2018-06-12T16:44:46.197Z,3.07
2018-06-12T16:47:16.754Z,3.50
2018-06-12T16:49:47.035Z,3.67
2018-06-12T16:52:15.409Z,3.30
2018-06-12T16:54:45.173Z,3.40
2018-06-12T16:57:14.934Z,3.40
2018-06-12T16:59:43.239Z,3.50
2018-06-12T17:02:13.001Z,3.60
2018-06-12T17:04:41.853Z,3.40
2018-06-12T17:07:13.618Z,3.30
2018-06-12T17:09:43.104Z,3.50
2018-06-12T17:12:11.533Z,3.33
2018-06-12T17:14:40.501Z,3.53
2018-06-12T17:17:08.991Z,3.10
2018-06-12T17:19:40.865Z,3.27
2018-06-12T17:22:10.030Z,3.33
2018-06-12T17:24:39.747Z,3.40
2018-06-12T17:27:13.083Z,3.50
2018-06-12T17:29:41.575Z,3.73
2018-06-12T17:32:13.709Z,3.20
2018-06-12T17:34:45.121Z,3.90
2018-06-12T17:37:17.077Z,3.50
2018-06-12T17:39:47.567Z,3.73
2018-06-12T17:42:20.308Z,3.63
2018-06-12T17:44:50.422Z,3.70
2018-06-12T17:47:20.310Z,3.50
2018-06-12T17:49:50.534Z,3.37
2018-06-12T17:52:21.828Z,3.50
2018-06-12T17:54:50.672Z,4.20
2018-06-12T17:57:19.659Z,3.67
2018-06-12T17:59:52.631Z,3.67
2018-06-12T18:02:23.695Z,3.70
2018-06-12T18:04:54.113Z,3.70
2018-06-12T18:07:27.940Z,3.40
2018-06-12T18:09:57.582Z,3.60
2018-06-12T18:12:32.334Z,4.17
2018-06-12T18:15:09.211Z,4.00
2018-06-12T18:17:38.742Z,3.83
2018-06-12T18:20:11.977Z,4.00
2018-06-12T18:22:43.255Z,3.97
2018-06-12T18:25:12.758Z,3.60
2018-06-12T18:27:45.487Z,3.67
2018-06-12T18:30:14.781Z,5.53
2018-06-12T18:32:51.562Z,3.27
2018-06-12T18:35:24.031Z,2.90
2018-06-12T18:40:56.224Z,3.50
2018-06-12T18:43:26.110Z,3.30
2018-06-12T18:46:04.812Z,3.97
2018-06-12T18:48:35.864Z,3.20
2018-06-12T18:51:10.284Z,3.50
2018-06-12T18:53:40.003Z,3.37
2018-06-12T18:56:10.266Z,3.17
2018-06-12T18:58:50.840Z,3.13
2018-06-12T19:04:48.350Z,3.13
2018-06-12T19:07:17.734Z,3.60
2018-06-12T19:09:53.433Z,3.63
2018-06-12T19:12:28.922Z,3.73
2018-06-12T19:14:59.870Z,3.00
2018-06-12T19:17:30.407Z,3.50
2018-06-12T19:20:01.097Z,3.83
2018-06-12T19:22:31.874Z,4.03
2018-06-12T19:25:01.973Z,3.87
2018-06-12T19:27:31.358Z,3.97
2018-06-12T19:30:02.282Z,3.50
2018-06-12T19:32:30.590Z,3.80
2018-06-12T19:35:02.337Z,3.80
2018-06-12T19:37:35.611Z,3.50
2018-06-12T19:40:07.103Z,3.93
2018-06-12T19:42:36.881Z,3.67
2018-06-12T19:45:08.933Z,4.03
2018-06-12T19:47:38.150Z,3.40
2018-06-12T19:50:08.021Z,3.70
2018-06-12T19:52:39.415Z,3.40
2018-06-12T19:55:08.637Z,3.63
2018-06-12T19:57:39.912Z,3.30
2018-06-12T20:00:09.918Z,3.63
2018-06-12T20:02:38.623Z,3.50
2018-06-12T20:05:08.179Z,3.60
2018-06-12T20:07:37.930Z,4.03
2018-06-12T20:10:07.184Z,3.60
2018-06-12T20:12:39.756Z,3.43
2018-06-12T20:15:12.062Z,3.27
2018-06-12T20:17:41.847Z,3.73
2018-06-12T20:20:10.406Z,3.63
2018-06-12T20:22:39.193Z,3.73
2018-06-12T20:25:10.746Z,3.00
2018-06-12T20:27:40.604Z,3.30
2018-06-12T20:30:11.606Z,3.33
2018-06-12T20:32:41.342Z,3.63
2018-06-12T20:35:11.535Z,3.10
2018-06-12T20:37:43.105Z,3.30
2018-06-12T20:40:12.990Z,3.07
2018-06-12T20:42:44.109Z,3.50
2018-06-12T20:45:17.593Z,3.60
2018-06-12T20:47:46.971Z,3.67
2018-06-12T20:50:15.714Z,3.43
2018-06-12T20:52:51.589Z,3.10
2018-06-12T20:55:22.519Z,3.53
2018-06-12T20:57:52.233Z,3.40
2018-06-12T21:00:20.737Z,3.13
2018-06-12T21:02:49.288Z,3.20
2018-06-12T21:05:19.100Z,3.67
2018-06-12T21:07:50.965Z,3.60
2018-06-12T21:10:21.253Z,3.07
2018-06-12T21:12:50.768Z,3.10
2018-06-12T21:15:21.040Z,3.50
2018-06-12T21:17:51.537Z,3.43
2018-06-12T21:20:28.903Z,3.50
2018-06-12T21:23:01.531Z,3.27
2018-06-12T21:25:31.178Z,3.30
2018-06-12T21:27:59.950Z,3.57
2018-06-12T21:30:30.006Z,3.20
2018-06-12T21:32:58.737Z,3.60
2018-06-12T21:35:29.140Z,3.80
2018-06-12T21:37:59.597Z,3.63
2018-06-12T21:40:28.227Z,3.70
2018-06-12T21:42:56.571Z,3.63
2018-06-12T21:45:25.630Z,3.60
2018-06-12T21:47:55.820Z,3.57
2018-06-12T21:50:26.174Z,3.60
2018-06-12T21:52:56.687Z,5.30
2018-06-12T21:55:26.084Z,3.30
2018-06-12T21:57:54.602Z,3.70
2018-06-12T22:00:36.830Z,3.73
2018-06-12T22:03:08.129Z,3.80
2018-06-12T22:05:37.027Z,3.57
2018-06-12T22:08:08.059Z,3.40
2018-06-12T22:10:40.336Z,3.50
2018-06-12T22:13:09.428Z,3.53
2018-06-12T22:15:37.728Z,3.70
2018-06-12T22:18:06.269Z,3.30
2018-06-12T22:20:35.112Z,3.80
2018-06-12T22:23:04.558Z,3.77
2018-06-12T22:25:32.662Z,3.70
2018-06-12T22:28:01.660Z,4.07
2018-06-12T22:30:31.434Z,3.77
2018-06-12T22:33:03.606Z,3.97
2018-06-12T22:35:34.336Z,3.80
2018-06-12T22:38:03.181Z,3.83
2018-06-12T22:40:36.738Z,4.30
2018-06-12T22:43:05.825Z,4.33
2018-06-12T22:45:34.512Z,4.20
2018-06-12T22:48:06.780Z,3.93
2018-06-12T22:50:36.279Z,4.27
2018-06-12T22:53:05.394Z,4.60
2018-06-12T22:55:34.808Z,4.40
2018-06-12T22:58:02.788Z,4.20
2018-06-12T23:00:30.769Z,4.33
2018-06-12T23:03:08.620Z,4.13
2018-06-12T23:05:36.797Z,4.50
2018-06-12T23:08:05.353Z,4.17
2018-06-12T23:10:33.547Z,4.50
2018-06-12T23:13:02.261Z,4.27
2018-06-12T23:15:33.910Z,4.20
2018-06-12T23:18:02.112Z,4.10
2018-06-12T23:20:48.123Z,4.33
2018-06-12T23:23:16.303Z,4.63
2018-06-12T23:25:44.608Z,4.40
2018-06-12T23:28:12.759Z,4.50
2018-06-12T23:30:41.238Z,4.47
2018-06-12T23:33:09.647Z,4.37
2018-06-12T23:35:37.924Z,4.50
2018-06-12T23:38:06.030Z,4.40
2018-06-12T23:40:34.804Z,4.27
2018-06-12T23:43:03.048Z,4.77
2018-06-12T23:45:32.607Z,4.73
2018-06-12T23:48:00.697Z,4.43
2018-06-12T23:50:28.712Z,4.27
2018-06-12T23:52:57.097Z,4.60
2018-06-12T23:55:25.166Z,5.07
2018-06-12T23:57:53.284Z,4.37
